sensor_id;sensor_type;location;lat;lon;timestamp;temperature;humidity
64012;DHT22;50211;52.768;12.124;2022-08-21T00:02:20;17.20;99.90
64012;DHT22;50211;52.768;12.124;2022-08-21T00:04:47;17.20;99.90
64012;DHT22;50211;52.768;12.124;2022-08-21T00:07:13;17.30;99.90
64012;DHT22;50211;52.768;12.124;2022-08-21T00:09:39;17.30;99.90
64012;DHT22;50211;52.768;12.124;2022-08-21T00:12:05;17.30;99.90
64012;DHT22;50211;52.768;12.124;2022-08-21T00:14:32;17.30;99.90
64012;DHT22;50211;52.768;12.124;2022-08-21T00:16:58;17.30;99.90
64012;DHT22;50211;52.768;12.124;2022-08-21T00:19:24;17.30;99.90
64012;DHT22;50211;52.768;12.124;2022-08-21T00:21:51;17.40;99.90
64012;DHT22;50211;52.768;12.124;2022-08-21T00:24:18;17.40;99.90
64012;DHT22;50211;52.768;12.124;2022-08-21T00:26:43;17.40;99.90
64012;DHT22;50211;52.768;12.124;2022-08-21T00:29:09;17.30;99.90
64012;DHT22;50211;52.768;12.124;2022-08-21T00:31:35;17.30;99.90
64012;DHT22;50211;52.768;12.124;2022-08-21T00:34:01;17.30;99.90
64012;DHT22;50211;52.768;12.124;2022-08-21T00:36:27;17.30;99.90
64012;DHT22;50211;52.768;12.124;2022-08-21T00:38:53;17.20;99.90
64012;DHT22;50211;52.768;12.124;2022-08-21T00:41:18;17.20;99.90
64012;DHT22;50211;52.768;12.124;2022-08-21T00:43:44;17.10;99.90
64012;DHT22;50211;52.768;12.124;2022-08-21T00:46:10;17.10;99.90
64012;DHT22;50211;52.768;12.124;2022-08-21T00:48:36;17.00;99.90
64012;DHT22;50211;52.768;12.124;2022-08-21T00:51:08;16.90;99.90
64012;DHT22;50211;52.768;12.124;2022-08-21T00:53:37;16.80;99.90
64012;DHT22;50211;52.768;12.124;2022-08-21T00:56:05;16.70;99.90
64012;DHT22;50211;52.768;12.124;2022-08-21T00:58:32;16.60;99.90
64012;DHT22;50211;52.768;12.124;2022-08-21T01:01:02;16.50;99.90
64012;DHT22;50211;52.768;12.124;2022-08-21T01:03:29;16.50;99.90
64012;DHT22;50211;52.768;12.124;2022-08-21T01:05:55;16.40;99.90
64012;DHT22;50211;52.768;12.124;2022-08-21T01:08:21;16.30;99.90
64012;DHT22;50211;52.768;12.124;2022-08-21T01:10:47;16.30;99.90
64012;DHT22;50211;52.768;12.124;2022-08-21T01:13:15;16.20;99.90
64012;DHT22;50211;52.768;12.124;2022-08-21T01:15:44;16.10;99.90
64012;DHT22;50211;52.768;12.124;2022-08-21T01:18:11;16.10;99.90
64012;DHT22;50211;52.768;12.124;2022-08-21T01:20:40;16.20;99.90
64012;DHT22;50211;52.768;12.124;2022-08-21T01:23:06;16.10;99.90
64012;DHT22;50211;52.768;12.124;2022-08-21T01:25:33;16.10;99.90
64012;DHT22;50211;52.768;12.124;2022-08-21T01:28:04;16.00;99.90
64012;DHT22;50211;52.768;12.124;2022-08-21T01:30:33;16.00;99.90
64012;DHT22;50211;52.768;12.124;2022-08-21T01:32:59;16.00;99.90
64012;DHT22;50211;52.768;12.124;2022-08-21T01:35:25;15.90;99.90
64012;DHT22;50211;52.768;12.124;2022-08-21T01:37:51;16.00;99.90
64012;DHT22;50211;52.768;12.124;2022-08-21T01:40:18;16.00;99.90
64012;DHT22;50211;52.768;12.124;2022-08-21T01:42:44;16.00;99.90
64012;DHT22;50211;52.768;12.124;2022-08-21T01:45:11;16.10;99.90
64012;DHT22;50211;52.768;12.124;2022-08-21T01:47:37;16.00;99.90
64012;DHT22;50211;52.768;12.124;2022-08-21T01:50:05;16.00;99.90
64012;DHT22;50211;52.768;12.124;2022-08-21T01:52:31;16.00;99.90
64012;DHT22;50211;52.768;12.124;2022-08-21T01:54:57;16.00;99.90
64012;DHT22;50211;52.768;12.124;2022-08-21T01:57:23;16.00;99.90
64012;DHT22;50211;52.768;12.124;2022-08-21T01:59:48;16.00;99.90
64012;DHT22;50211;52.768;12.124;2022-08-21T02:02:14;16.00;99.90
64012;DHT22;50211;52.768;12.124;2022-08-21T02:04:39;16.10;99.90
64012;DHT22;50211;52.768;12.124;2022-08-21T02:07:05;16.10;99.90
64012;DHT22;50211;52.768;12.124;2022-08-21T02:09:30;16.00;99.90
64012;DHT22;50211;52.768;12.124;2022-08-21T02:11:56;16.10;99.90
64012;DHT22;50211;52.768;12.124;2022-08-21T02:14:22;16.10;99.90
64012;DHT22;50211;52.768;12.124;2022-08-21T02:16:47;16.10;99.90
64012;DHT22;50211;52.768;12.124;2022-08-21T02:19:15;16.10;99.90
64012;DHT22;50211;52.768;12.124;2022-08-21T02:21:41;16.00;99.90
64012;DHT22;50211;52.768;12.124;2022-08-21T02:24:07;16.00;99.90
64012;DHT22;50211;52.768;12.124;2022-08-21T02:26:33;15.90;99.90
64012;DHT22;50211;52.768;12.124;2022-08-21T02:28:59;15.80;99.90
64012;DHT22;50211;52.768;12.124;2022-08-21T02:31:25;15.80;99.90
64012;DHT22;50211;52.768;12.124;2022-08-21T02:33:51;15.70;99.90
64012;DHT22;50211;52.768;12.124;2022-08-21T02:36:17;15.70;99.90
64012;DHT22;50211;52.768;12.124;2022-08-21T02:38:43;15.70;99.90
64012;DHT22;50211;52.768;12.124;2022-08-21T02:41:13;15.60;99.90
64012;DHT22;50211;52.768;12.124;2022-08-21T02:43:39;15.60;99.90
64012;DHT22;50211;52.768;12.124;2022-08-21T02:46:06;15.60;99.90
64012;DHT22;50211;52.768;12.124;2022-08-21T02:48:33;15.60;99.90
64012;DHT22;50211;52.768;12.124;2022-08-21T02:51:01;15.50;99.90
64012;DHT22;50211;52.768;12.124;2022-08-21T02:53:28;15.50;99.90
64012;DHT22;50211;52.768;12.124;2022-08-21T02:55:56;15.40;99.90
64012;DHT22;50211;52.768;12.124;2022-08-21T02:58:26;15.40;99.90
64012;DHT22;50211;52.768;12.124;2022-08-21T03:00:51;15.40;99.90
64012;DHT22;50211;52.768;12.124;2022-08-21T03:03:17;15.30;99.90
64012;DHT22;50211;52.768;12.124;2022-08-21T03:05:43;15.30;99.90
64012;DHT22;50211;52.768;12.124;2022-08-21T03:08:11;15.30;99.90
64012;DHT22;50211;52.768;12.124;2022-08-21T03:10:44;15.30;99.90
64012;DHT22;50211;52.768;12.124;2022-08-21T03:13:10;15.30;99.90
64012;DHT22;50211;52.768;12.124;2022-08-21T03:15:37;15.40;99.90
64012;DHT22;50211;52.768;12.124;2022-08-21T03:18:03;15.30;99.90
64012;DHT22;50211;52.768;12.124;2022-08-21T03:20:30;15.40;99.90
64012;DHT22;50211;52.768;12.124;2022-08-21T03:22:57;15.40;99.90
64012;DHT22;50211;52.768;12.124;2022-08-21T03:25:25;15.30;99.90
64012;DHT22;50211;52.768;12.124;2022-08-21T03:27:50;15.30;99.90
64012;DHT22;50211;52.768;12.124;2022-08-21T03:30:18;15.30;99.90
64012;DHT22;50211;52.768;12.124;2022-08-21T03:32:45;15.30;99.90
64012;DHT22;50211;52.768;12.124;2022-08-21T03:35:12;15.40;99.90
64012;DHT22;50211;52.768;12.124;2022-08-21T03:37:38;15.30;99.90
64012;DHT22;50211;52.768;12.124;2022-08-21T03:40:05;15.40;99.90
64012;DHT22;50211;52.768;12.124;2022-08-21T03:42:31;15.40;99.90
64012;DHT22;50211;52.768;12.124;2022-08-21T03:44:56;15.40;99.90
64012;DHT22;50211;52.768;12.124;2022-08-21T03:47:22;15.30;99.90
64012;DHT22;50211;52.768;12.124;2022-08-21T03:49:48;15.30;99.90
64012;DHT22;50211;52.768;12.124;2022-08-21T03:52:13;15.30;99.90
64012;DHT22;50211;52.768;12.124;2022-08-21T03:54:39;15.30;99.90
64012;DHT22;50211;52.768;12.124;2022-08-21T03:57:07;15.20;99.90
64012;DHT22;50211;52.768;12.124;2022-08-21T03:59:32;15.20;99.90
64012;DHT22;50211;52.768;12.124;2022-08-21T04:02:00;15.20;99.90
64012;DHT22;50211;52.768;12.124;2022-08-21T04:04:27;15.20;99.90
64012;DHT22;50211;52.768;12.124;2022-08-21T04:06:53;15.30;99.90
64012;DHT22;50211;52.768;12.124;2022-08-21T04:09:19;15.20;99.90
64012;DHT22;50211;52.768;12.124;2022-08-21T04:11:44;15.20;99.90
64012;DHT22;50211;52.768;12.124;2022-08-21T04:14:11;15.10;99.90
64012;DHT22;50211;52.768;12.124;2022-08-21T04:16:37;15.10;99.90
64012;DHT22;50211;52.768;12.124;2022-08-21T04:19:03;15.10;99.90
64012;DHT22;50211;52.768;12.124;2022-08-21T04:21:29;15.10;99.90
64012;DHT22;50211;52.768;12.124;2022-08-21T04:23:55;15.00;99.90
64012;DHT22;50211;52.768;12.124;2022-08-21T04:26:20;15.00;99.90
64012;DHT22;50211;52.768;12.124;2022-08-21T04:28:46;15.00;99.90
64012;DHT22;50211;52.768;12.124;2022-08-21T04:31:11;15.00;99.90
64012;DHT22;50211;52.768;12.124;2022-08-21T04:33:37;15.00;99.90
64012;DHT22;50211;52.768;12.124;2022-08-21T04:36:03;15.00;99.90
64012;DHT22;50211;52.768;12.124;2022-08-21T04:38:29;15.00;99.90
64012;DHT22;50211;52.768;12.124;2022-08-21T04:40:56;15.00;99.90
64012;DHT22;50211;52.768;12.124;2022-08-21T04:43:22;14.90;99.90
64012;DHT22;50211;52.768;12.124;2022-08-21T04:45:49;15.00;99.90
64012;DHT22;50211;52.768;12.124;2022-08-21T04:48:19;15.00;99.90
64012;DHT22;50211;52.768;12.124;2022-08-21T04:53:40;15.00;99.90
64012;DHT22;50211;52.768;12.124;2022-08-21T04:56:37;15.00;99.90
64012;DHT22;50211;52.768;12.124;2022-08-21T04:59:11;15.00;99.90
64012;DHT22;50211;52.768;12.124;2022-08-21T05:01:39;14.90;99.90
64012;DHT22;50211;52.768;12.124;2022-08-21T05:04:08;14.80;99.90
64012;DHT22;50211;52.768;12.124;2022-08-21T05:06:36;14.80;99.90
64012;DHT22;50211;52.768;12.124;2022-08-21T05:09:03;14.80;99.90
64012;DHT22;50211;52.768;12.124;2022-08-21T05:11:32;14.80;99.90
64012;DHT22;50211;52.768;12.124;2022-08-21T05:13:58;14.80;99.90
64012;DHT22;50211;52.768;12.124;2022-08-21T05:16:24;14.80;99.90
64012;DHT22;50211;52.768;12.124;2022-08-21T05:18:49;14.80;99.90
64012;DHT22;50211;52.768;12.124;2022-08-21T05:21:15;14.80;99.90
64012;DHT22;50211;52.768;12.124;2022-08-21T05:23:40;14.80;99.90
64012;DHT22;50211;52.768;12.124;2022-08-21T05:26:06;14.80;99.90
64012;DHT22;50211;52.768;12.124;2022-08-21T05:28:32;14.80;99.90
64012;DHT22;50211;52.768;12.124;2022-08-21T05:30:58;14.80;99.90
64012;DHT22;50211;52.768;12.124;2022-08-21T05:33:23;14.80;99.90
64012;DHT22;50211;52.768;12.124;2022-08-21T05:35:50;14.90;99.90
64012;DHT22;50211;52.768;12.124;2022-08-21T05:38:17;14.90;99.90
64012;DHT22;50211;52.768;12.124;2022-08-21T05:40:42;14.90;99.90
64012;DHT22;50211;52.768;12.124;2022-08-21T05:43:08;15.00;99.90
64012;DHT22;50211;52.768;12.124;2022-08-21T05:45:34;15.00;99.90
64012;DHT22;50211;52.768;12.124;2022-08-21T05:48:17;14.90;99.90
64012;DHT22;50211;52.768;12.124;2022-08-21T05:50:44;15.00;99.90
64012;DHT22;50211;52.768;12.124;2022-08-21T05:53:10;14.90;99.90
64012;DHT22;50211;52.768;12.124;2022-08-21T05:55:37;14.90;99.90
64012;DHT22;50211;52.768;12.124;2022-08-21T05:58:03;15.00;99.90
64012;DHT22;50211;52.768;12.124;2022-08-21T06:00:29;15.00;99.90
64012;DHT22;50211;52.768;12.124;2022-08-21T06:02:55;15.10;99.90
64012;DHT22;50211;52.768;12.124;2022-08-21T06:05:21;15.10;99.90
64012;DHT22;50211;52.768;12.124;2022-08-21T06:07:46;15.20;99.90
64012;DHT22;50211;52.768;12.124;2022-08-21T06:10:12;15.30;99.90
64012;DHT22;50211;52.768;12.124;2022-08-21T06:12:37;15.30;99.90
64012;DHT22;50211;52.768;12.124;2022-08-21T06:15:03;15.30;99.90
64012;DHT22;50211;52.768;12.124;2022-08-21T06:17:29;15.40;99.90
64012;DHT22;50211;52.768;12.124;2022-08-21T06:19:55;15.40;99.90
64012;DHT22;50211;52.768;12.124;2022-08-21T06:22:21;15.50;99.90
64012;DHT22;50211;52.768;12.124;2022-08-21T06:24:46;15.50;99.90
64012;DHT22;50211;52.768;12.124;2022-08-21T06:27:12;15.50;99.90
64012;DHT22;50211;52.768;12.124;2022-08-21T06:29:38;15.60;99.90
64012;DHT22;50211;52.768;12.124;2022-08-21T06:32:04;15.70;99.90
64012;DHT22;50211;52.768;12.124;2022-08-21T06:34:31;15.80;99.90
64012;DHT22;50211;52.768;12.124;2022-08-21T06:36:57;15.80;99.90
64012;DHT22;50211;52.768;12.124;2022-08-21T06:39:22;15.80;99.90
64012;DHT22;50211;52.768;12.124;2022-08-21T06:41:48;15.80;99.90
64012;DHT22;50211;52.768;12.124;2022-08-21T06:44:16;15.80;99.90
64012;DHT22;50211;52.768;12.124;2022-08-21T06:46:41;15.80;99.90
64012;DHT22;50211;52.768;12.124;2022-08-21T06:49:07;15.90;99.90
64012;DHT22;50211;52.768;12.124;2022-08-21T06:51:32;15.90;99.90
64012;DHT22;50211;52.768;12.124;2022-08-21T06:53:58;15.90;99.90
64012;DHT22;50211;52.768;12.124;2022-08-21T06:56:23;15.90;99.90
64012;DHT22;50211;52.768;12.124;2022-08-21T06:58:49;16.00;99.90
64012;DHT22;50211;52.768;12.124;2022-08-21T07:01:14;16.10;99.90
64012;DHT22;50211;52.768;12.124;2022-08-21T07:03:42;16.20;99.90
64012;DHT22;50211;52.768;12.124;2022-08-21T07:06:09;16.20;99.90
64012;DHT22;50211;52.768;12.124;2022-08-21T07:08:35;16.20;99.90
64012;DHT22;50211;52.768;12.124;2022-08-21T07:11:07;16.30;99.90
64012;DHT22;50211;52.768;12.124;2022-08-21T07:13:34;16.40;99.90
64012;DHT22;50211;52.768;12.124;2022-08-21T07:15:59;16.50;99.90
64012;DHT22;50211;52.768;12.124;2022-08-21T07:18:25;16.60;99.90
64012;DHT22;50211;52.768;12.124;2022-08-21T07:20:50;16.70;99.90
64012;DHT22;50211;52.768;12.124;2022-08-21T07:23:24;16.80;99.90
64012;DHT22;50211;52.768;12.124;2022-08-21T07:25:51;16.90;99.90
64012;DHT22;50211;52.768;12.124;2022-08-21T07:28:16;17.10;99.90
64012;DHT22;50211;52.768;12.124;2022-08-21T07:30:42;17.20;99.90
64012;DHT22;50211;52.768;12.124;2022-08-21T07:33:07;17.30;99.90
64012;DHT22;50211;52.768;12.124;2022-08-21T07:35:33;17.40;99.90
64012;DHT22;50211;52.768;12.124;2022-08-21T07:37:59;17.40;99.90
64012;DHT22;50211;52.768;12.124;2022-08-21T07:40:25;17.60;99.90
64012;DHT22;50211;52.768;12.124;2022-08-21T07:42:50;17.60;99.90
64012;DHT22;50211;52.768;12.124;2022-08-21T07:45:19;17.80;99.90
64012;DHT22;50211;52.768;12.124;2022-08-21T07:47:45;17.90;99.90
64012;DHT22;50211;52.768;12.124;2022-08-21T07:50:11;18.00;99.90
64012;DHT22;50211;52.768;12.124;2022-08-21T07:52:37;18.10;99.90
64012;DHT22;50211;52.768;12.124;2022-08-21T07:55:04;18.20;99.90
64012;DHT22;50211;52.768;12.124;2022-08-21T07:57:30;18.50;99.90
64012;DHT22;50211;52.768;12.124;2022-08-21T07:59:55;18.70;99.90
64012;DHT22;50211;52.768;12.124;2022-08-21T08:02:25;18.90;99.90
64012;DHT22;50211;52.768;12.124;2022-08-21T08:04:51;19.10;99.90
64012;DHT22;50211;52.768;12.124;2022-08-21T08:07:16;19.10;99.90
64012;DHT22;50211;52.768;12.124;2022-08-21T08:09:43;19.30;99.90
64012;DHT22;50211;52.768;12.124;2022-08-21T08:12:08;19.40;99.90
64012;DHT22;50211;52.768;12.124;2022-08-21T08:14:34;19.30;99.90
64012;DHT22;50211;52.768;12.124;2022-08-21T08:16:59;19.40;99.90
64012;DHT22;50211;52.768;12.124;2022-08-21T08:19:25;19.50;99.90
64012;DHT22;50211;52.768;12.124;2022-08-21T08:21:51;19.80;99.90
64012;DHT22;50211;52.768;12.124;2022-08-21T08:24:16;20.10;99.90
64012;DHT22;50211;52.768;12.124;2022-08-21T08:26:42;20.30;99.90
64012;DHT22;50211;52.768;12.124;2022-08-21T08:29:07;20.50;99.90
64012;DHT22;50211;52.768;12.124;2022-08-21T08:31:33;20.90;99.90
64012;DHT22;50211;52.768;12.124;2022-08-21T08:33:59;21.30;99.90
64012;DHT22;50211;52.768;12.124;2022-08-21T08:36:32;21.30;99.90
64012;DHT22;50211;52.768;12.124;2022-08-21T08:38:58;21.30;99.90
64012;DHT22;50211;52.768;12.124;2022-08-21T08:41:24;21.60;99.90
64012;DHT22;50211;52.768;12.124;2022-08-21T08:43:53;21.70;99.90
64012;DHT22;50211;52.768;12.124;2022-08-21T08:46:41;22.00;99.90
64012;DHT22;50211;52.768;12.124;2022-08-21T08:49:15;22.20;99.90
64012;DHT22;50211;52.768;12.124;2022-08-21T08:54:30;22.40;99.90
64012;DHT22;50211;52.768;12.124;2022-08-21T08:56:59;22.50;99.90
64012;DHT22;50211;52.768;12.124;2022-08-21T08:59:43;22.80;99.90
64012;DHT22;50211;52.768;12.124;2022-08-21T09:02:11;23.00;99.90
64012;DHT22;50211;52.768;12.124;2022-08-21T09:04:37;23.30;99.90
64012;DHT22;50211;52.768;12.124;2022-08-21T09:12:30;23.70;99.90
64012;DHT22;50211;52.768;12.124;2022-08-21T09:20:51;24.20;99.90
64012;DHT22;50211;52.768;12.124;2022-08-21T09:26:15;24.30;99.90
64012;DHT22;50211;52.768;12.124;2022-08-21T09:28:41;24.60;99.90
64012;DHT22;50211;52.768;12.124;2022-08-21T09:31:24;24.80;99.90
64012;DHT22;50211;52.768;12.124;2022-08-21T09:34:00;25.00;99.90
64012;DHT22;50211;52.768;12.124;2022-08-21T09:38:59;25.00;99.90
64012;DHT22;50211;52.768;12.124;2022-08-21T09:41:30;24.90;99.90
64012;DHT22;50211;52.768;12.124;2022-08-21T09:43:56;24.60;99.90
64012;DHT22;50211;52.768;12.124;2022-08-21T09:46:27;24.80;99.90
64012;DHT22;50211;52.768;12.124;2022-08-21T09:48:55;25.00;99.90
64012;DHT22;50211;52.768;12.124;2022-08-21T09:51:24;25.00;99.90
64012;DHT22;50211;52.768;12.124;2022-08-21T09:56:37;25.40;99.90
64012;DHT22;50211;52.768;12.124;2022-08-21T09:59:31;25.50;99.90
64012;DHT22;50211;52.768;12.124;2022-08-21T10:01:58;25.70;99.90
64012;DHT22;50211;52.768;12.124;2022-08-21T10:04:32;26.00;99.90
64012;DHT22;50211;52.768;12.124;2022-08-21T10:07:14;26.10;99.90
64012;DHT22;50211;52.768;12.124;2022-08-21T10:09:40;26.10;99.90
64012;DHT22;50211;52.768;12.124;2022-08-21T10:12:15;26.10;99.90
64012;DHT22;50211;52.768;12.124;2022-08-21T10:15:15;26.30;99.90
64012;DHT22;50211;52.768;12.124;2022-08-21T10:17:59;26.50;99.90
64012;DHT22;50211;52.768;12.124;2022-08-21T10:23:42;26.70;99.90
64012;DHT22;50211;52.768;12.124;2022-08-21T10:31:38;26.50;99.90
64012;DHT22;50211;52.768;12.124;2022-08-21T10:34:29;26.20;99.90
64012;DHT22;50211;52.768;12.124;2022-08-21T10:37:18;26.50;99.90
64012;DHT22;50211;52.768;12.124;2022-08-21T10:40:17;26.40;99.90
64012;DHT22;50211;52.768;12.124;2022-08-21T10:45:39;27.30;99.90
64012;DHT22;50211;52.768;12.124;2022-08-21T10:48:08;27.50;99.90
64012;DHT22;50211;52.768;12.124;2022-08-21T10:51:06;27.60;99.90
64012;DHT22;50211;52.768;12.124;2022-08-21T10:53:50;27.10;99.90
64012;DHT22;50211;52.768;12.124;2022-08-21T10:56:21;27.00;99.90
64012;DHT22;50211;52.768;12.124;2022-08-21T10:59:00;27.10;99.90
64012;DHT22;50211;52.768;12.124;2022-08-21T11:01:45;27.20;99.90
64012;DHT22;50211;52.768;12.124;2022-08-21T11:04:25;27.10;99.90
64012;DHT22;50211;52.768;12.124;2022-08-21T11:07:09;26.70;99.90
64012;DHT22;50211;52.768;12.124;2022-08-21T11:09:35;26.20;99.90
64012;DHT22;50211;52.768;12.124;2022-08-21T11:12:18;26.50;99.90
64012;DHT22;50211;52.768;12.124;2022-08-21T11:14:58;26.80;99.90
64012;DHT22;50211;52.768;12.124;2022-08-21T11:17:32;26.10;99.90
64012;DHT22;50211;52.768;12.124;2022-08-21T11:20:13;25.90;99.90
64012;DHT22;50211;52.768;12.124;2022-08-21T11:25:17;26.10;99.90
64012;DHT22;50211;52.768;12.124;2022-08-21T11:27:54;26.50;99.90
64012;DHT22;50211;52.768;12.124;2022-08-21T11:30:23;26.70;99.90
64012;DHT22;50211;52.768;12.124;2022-08-21T11:33:30;26.90;99.90
64012;DHT22;50211;52.768;12.124;2022-08-21T11:36:09;26.80;99.90
64012;DHT22;50211;52.768;12.124;2022-08-21T11:38:42;26.70;99.90
64012;DHT22;50211;52.768;12.124;2022-08-21T11:41:31;26.80;99.90
64012;DHT22;50211;52.768;12.124;2022-08-21T11:47:15;27.20;99.90
64012;DHT22;50211;52.768;12.124;2022-08-21T11:52:47;26.70;99.90
64012;DHT22;50211;52.768;12.124;2022-08-21T11:55:28;26.70;99.90
64012;DHT22;50211;52.768;12.124;2022-08-21T12:00:53;26.40;99.90
64012;DHT22;50211;52.768;12.124;2022-08-21T12:03:31;26.20;99.90
64012;DHT22;50211;52.768;12.124;2022-08-21T12:06:04;26.20;99.90
64012;DHT22;50211;52.768;12.124;2022-08-21T12:08:36;26.30;99.90
64012;DHT22;50211;52.768;12.124;2022-08-21T12:16:37;26.20;99.90
64012;DHT22;50211;52.768;12.124;2022-08-21T12:21:59;26.00;99.90
64012;DHT22;50211;52.768;12.124;2022-08-21T12:27:14;26.10;99.90
64012;DHT22;50211;52.768;12.124;2022-08-21T12:29:48;26.30;99.90
64012;DHT22;50211;52.768;12.124;2022-08-21T12:34:49;26.50;99.90
64012;DHT22;50211;52.768;12.124;2022-08-21T12:37:28;26.70;99.90
64012;DHT22;50211;52.768;12.124;2022-08-21T12:39:58;27.10;99.90
64012;DHT22;50211;52.768;12.124;2022-08-21T12:42:38;27.50;99.90
64012;DHT22;50211;52.768;12.124;2022-08-21T12:45:31;27.70;99.90
64012;DHT22;50211;52.768;12.124;2022-08-21T12:48:02;26.80;99.00
64012;DHT22;50211;52.768;12.124;2022-08-21T12:50:40;26.70;99.90
64012;DHT22;50211;52.768;12.124;2022-08-21T12:53:24;27.00;99.90
64012;DHT22;50211;52.768;12.124;2022-08-21T12:55:51;26.90;99.90
64012;DHT22;50211;52.768;12.124;2022-08-21T12:58:23;27.10;99.90
64012;DHT22;50211;52.768;12.124;2022-08-21T13:01:20;27.20;99.70
64012;DHT22;50211;52.768;12.124;2022-08-21T13:03:46;27.10;99.90
64012;DHT22;50211;52.768;12.124;2022-08-21T13:06:17;27.30;99.40
64012;DHT22;50211;52.768;12.124;2022-08-21T13:08:44;27.30;99.50
64012;DHT22;50211;52.768;12.124;2022-08-21T13:11:18;27.40;98.60
64012;DHT22;50211;52.768;12.124;2022-08-21T13:13:51;27.60;99.90
64012;DHT22;50211;52.768;12.124;2022-08-21T13:16:27;27.80;99.90
64012;DHT22;50211;52.768;12.124;2022-08-21T13:19:06;28.00;97.70
64012;DHT22;50211;52.768;12.124;2022-08-21T13:21:41;27.80;98.40
64012;DHT22;50211;52.768;12.124;2022-08-21T13:26:41;27.40;98.90
64012;DHT22;50211;52.768;12.124;2022-08-21T13:29:12;27.70;97.60
64012;DHT22;50211;52.768;12.124;2022-08-21T13:31:39;27.90;99.90
64012;DHT22;50211;52.768;12.124;2022-08-21T13:34:08;28.20;98.50
64012;DHT22;50211;52.768;12.124;2022-08-21T13:36:39;28.20;97.20
64012;DHT22;50211;52.768;12.124;2022-08-21T13:39:09;28.40;97.60
64012;DHT22;50211;52.768;12.124;2022-08-21T13:41:38;28.50;96.80
64012;DHT22;50211;52.768;12.124;2022-08-21T13:44:34;28.80;97.00
64012;DHT22;50211;52.768;12.124;2022-08-21T13:47:03;29.20;96.40
64012;DHT22;50211;52.768;12.124;2022-08-21T13:49:40;29.50;96.50
64012;DHT22;50211;52.768;12.124;2022-08-21T13:52:20;29.60;95.00
64012;DHT22;50211;52.768;12.124;2022-08-21T13:54:53;29.50;94.20
64012;DHT22;50211;52.768;12.124;2022-08-21T13:57:26;29.10;97.00
64012;DHT22;50211;52.768;12.124;2022-08-21T13:59:52;29.50;95.00
64012;DHT22;50211;52.768;12.124;2022-08-21T14:02:21;29.60;94.90
64012;DHT22;50211;52.768;12.124;2022-08-21T14:04:59;29.50;94.50
64012;DHT22;50211;52.768;12.124;2022-08-21T14:07:31;29.10;94.60
64012;DHT22;50211;52.768;12.124;2022-08-21T14:10:02;29.20;97.00
64012;DHT22;50211;52.768;12.124;2022-08-21T14:12:36;29.60;95.10
64012;DHT22;50211;52.768;12.124;2022-08-21T14:15:04;29.60;93.50
64012;DHT22;50211;52.768;12.124;2022-08-21T14:17:34;29.70;95.20
64012;DHT22;50211;52.768;12.124;2022-08-21T14:20:01;30.00;94.30
64012;DHT22;50211;52.768;12.124;2022-08-21T14:22:37;29.60;94.20
64012;DHT22;50211;52.768;12.124;2022-08-21T14:30:36;28.60;94.70
64012;DHT22;50211;52.768;12.124;2022-08-21T14:33:04;28.60;93.70
64012;DHT22;50211;52.768;12.124;2022-08-21T14:35:32;28.80;94.30
64012;DHT22;50211;52.768;12.124;2022-08-21T14:37:58;28.50;94.00
64012;DHT22;50211;52.768;12.124;2022-08-21T14:40:24;28.70;93.40
64012;DHT22;50211;52.768;12.124;2022-08-21T14:42:50;29.00;92.70
64012;DHT22;50211;52.768;12.124;2022-08-21T14:47:45;30.00;91.70
64012;DHT22;50211;52.768;12.124;2022-08-21T14:50:12;30.40;91.30
64012;DHT22;50211;52.768;12.124;2022-08-21T14:52:37;30.00;91.30
64012;DHT22;50211;52.768;12.124;2022-08-21T14:55:05;30.20;91.10
64012;DHT22;50211;52.768;12.124;2022-08-21T14:57:31;30.60;91.20
64012;DHT22;50211;52.768;12.124;2022-08-21T14:59:57;30.80;93.00
64012;DHT22;50211;52.768;12.124;2022-08-21T15:02:24;31.10;89.10
64012;DHT22;50211;52.768;12.124;2022-08-21T15:04:50;31.10;89.90
64012;DHT22;50211;52.768;12.124;2022-08-21T15:07:16;31.20;90.30
64012;DHT22;50211;52.768;12.124;2022-08-21T15:09:41;31.20;90.80
64012;DHT22;50211;52.768;12.124;2022-08-21T15:12:07;31.10;91.00
64012;DHT22;50211;52.768;12.124;2022-08-21T15:14:35;30.70;92.10
64012;DHT22;50211;52.768;12.124;2022-08-21T15:17:03;30.40;92.40
64012;DHT22;50211;52.768;12.124;2022-08-21T15:19:30;30.10;92.00
64012;DHT22;50211;52.768;12.124;2022-08-21T15:21:57;29.70;93.20
64012;DHT22;50211;52.768;12.124;2022-08-21T15:24:22;29.10;92.40
64012;DHT22;50211;52.768;12.124;2022-08-21T15:26:49;28.70;92.50
64012;DHT22;50211;52.768;12.124;2022-08-21T15:29:15;28.30;93.10
64012;DHT22;50211;52.768;12.124;2022-08-21T15:31:51;28.00;93.80
64012;DHT22;50211;52.768;12.124;2022-08-21T15:34:17;27.80;94.00
64012;DHT22;50211;52.768;12.124;2022-08-21T15:36:43;27.60;95.90
64012;DHT22;50211;52.768;12.124;2022-08-21T15:39:09;27.60;96.20
64012;DHT22;50211;52.768;12.124;2022-08-21T15:41:34;27.50;95.70
64012;DHT22;50211;52.768;12.124;2022-08-21T15:44:00;27.40;94.90
64012;DHT22;50211;52.768;12.124;2022-08-21T15:46:25;27.20;94.50
64012;DHT22;50211;52.768;12.124;2022-08-21T15:48:51;27.10;95.30
64012;DHT22;50211;52.768;12.124;2022-08-21T15:51:17;27.10;95.00
64012;DHT22;50211;52.768;12.124;2022-08-21T15:53:43;27.10;96.30
64012;DHT22;50211;52.768;12.124;2022-08-21T15:56:21;27.00;96.60
64012;DHT22;50211;52.768;12.124;2022-08-21T15:58:51;26.90;97.00
64012;DHT22;50211;52.768;12.124;2022-08-21T16:01:17;26.70;97.00
64012;DHT22;50211;52.768;12.124;2022-08-21T16:03:47;26.60;97.10
64012;DHT22;50211;52.768;12.124;2022-08-21T16:06:13;26.40;95.80
64012;DHT22;50211;52.768;12.124;2022-08-21T16:08:39;26.40;98.40
64012;DHT22;50211;52.768;12.124;2022-08-21T16:11:05;26.30;96.10
64012;DHT22;50211;52.768;12.124;2022-08-21T16:13:38;26.30;96.80
64012;DHT22;50211;52.768;12.124;2022-08-21T16:16:04;26.30;98.80
64012;DHT22;50211;52.768;12.124;2022-08-21T16:18:30;26.40;97.30
64012;DHT22;50211;52.768;12.124;2022-08-21T16:20:56;26.40;96.10
64012;DHT22;50211;52.768;12.124;2022-08-21T16:23:21;26.40;99.90
64012;DHT22;50211;52.768;12.124;2022-08-21T16:25:47;26.30;96.40
64012;DHT22;50211;52.768;12.124;2022-08-21T16:28:15;26.30;98.60
64012;DHT22;50211;52.768;12.124;2022-08-21T16:30:43;26.30;97.90
64012;DHT22;50211;52.768;12.124;2022-08-21T16:33:31;26.40;98.10
64012;DHT22;50211;52.768;12.124;2022-08-21T16:35:57;26.40;97.70
64012;DHT22;50211;52.768;12.124;2022-08-21T16:38:24;26.70;98.60
64012;DHT22;50211;52.768;12.124;2022-08-21T16:40:50;27.00;99.10